Time;durP1;ratioP1;P1;durP2;ratioP2;P2;SDS_P1;SDS_P2;PMS_P1;PMS_P2;Temp;Humidity;BMP_temperature;BMP_pressure;BME280_temperature;BME280_humidity;BME280_pressure;Samples;Min_cycle;Max_cycle;Signal;HPM_P1;HPM_P2
2021/09/06 00:01:49;;;;;;;1.47;1.23;;;17.80;96.60;;;;;;4824489;29;20193;-86
2021/09/06 00:04:14;;;;;;;1.33;1.20;;;17.80;96.60;;;;;;4824415;29;20206;-87
2021/09/06 00:06:41;;;;;;;3.33;1.10;;;17.70;96.60;;;;;;4824434;29;20218;-86
2021/09/06 00:09:08;;;;;;;1.90;1.73;;;17.70;96.60;;;;;;4825391;29;20363;-87
2021/09/06 00:11:34;;;;;;;3.43;1.30;;;17.70;96.70;;;;;;4825559;29;20414;-86
2021/09/06 00:14:00;;;;;;;1.67;1.20;;;17.60;96.70;;;;;;4831575;29;20496;-86
2021/09/06 00:16:26;;;;;;;2.90;1.40;;;17.60;96.70;;;;;;4835196;29;20421;-87
2021/09/06 00:18:52;;;;;;;1.70;1.30;;;17.60;96.80;;;;;;4826932;29;20797;-87
2021/09/06 00:21:18;;;;;;;2.23;1.30;;;17.50;96.70;;;;;;4824259;29;20246;-87
2021/09/06 00:23:44;;;;;;;1.23;1.10;;;17.50;96.80;;;;;;4824391;29;20224;-86
2021/09/06 00:26:10;;;;;;;1.77;1.30;;;17.50;96.80;;;;;;4827095;29;20406;-87
2021/09/06 00:28:35;;;;;;;1.60;1.50;;;17.50;96.80;;;;;;4823608;29;20450;-86
2021/09/06 00:31:01;;;;;;;2.33;1.30;;;17.50;96.90;;;;;;4824152;29;20186;-86
2021/09/06 00:33:27;;;;;;;4.07;1.67;;;17.40;96.80;;;;;;4824788;29;20309;-87
2021/09/06 00:35:52;;;;;;;1.43;1.23;;;17.40;96.70;;;;;;4825724;29;20193;-86
2021/09/06 00:38:20;;;;;;;2.30;1.70;;;17.40;96.80;;;;;;4825179;29;20505;-87
2021/09/06 00:40:50;;;;;;;2.67;1.60;;;17.40;96.80;;;;;;4824501;29;20194;-86
2021/09/06 00:43:17;;;;;;;3.17;1.70;;;17.40;96.90;;;;;;4835931;29;20481;-86
2021/09/06 00:45:44;;;;;;;1.80;1.50;;;17.30;96.80;;;;;;4828652;29;20449;-87
2021/09/06 00:48:10;;;;;;;1.80;1.67;;;17.30;96.90;;;;;;4823766;29;20437;-87
2021/09/06 00:50:36;;;;;;;2.20;1.60;;;17.30;96.90;;;;;;4823783;29;20501;-87
2021/09/06 00:53:03;;;;;;;2.23;1.80;;;17.30;97.00;;;;;;4824884;29;20488;-86
2021/09/06 00:55:29;;;;;;;2.37;1.60;;;17.30;96.80;;;;;;4823962;29;20449;-87
2021/09/06 00:57:55;;;;;;;3.10;1.40;;;17.20;96.80;;;;;;4824939;29;20442;-86
2021/09/06 01:00:21;;;;;;;3.07;1.47;;;17.20;96.90;;;;;;4825296;29;20524;-86
2021/09/06 01:02:47;;;;;;;2.70;1.87;;;17.20;96.80;;;;;;4824948;29;20997;-85
2021/09/06 01:05:14;;;;;;;2.80;1.40;;;17.20;96.90;;;;;;4827044;29;20202;-87
2021/09/06 01:07:40;;;;;;;1.63;1.50;;;17.20;96.90;;;;;;4823624;29;20435;-87
2021/09/06 01:10:09;;;;;;;1.90;1.47;;;17.20;96.90;;;;;;4824672;29;20518;-86
2021/09/06 01:12:35;;;;;;;2.03;1.83;;;17.20;96.90;;;;;;4823584;29;20182;-86
2021/09/06 01:15:03;;;;;;;2.73;1.47;;;17.10;96.80;;;;;;4826305;29;20517;-87
2021/09/06 01:17:28;;;;;;;1.80;1.60;;;17.10;96.90;;;;;;4827556;29;20436;-86
2021/09/06 01:19:54;;;;;;;3.07;1.60;;;17.10;96.90;;;;;;4824479;29;20465;-85
2021/09/06 01:22:20;;;;;;;3.67;1.70;;;17.10;97.10;;;;;;4823529;29;20205;-86
2021/09/06 01:24:46;;;;;;;2.73;1.60;;;17.00;97.10;;;;;;4823425;29;20214;-87
2021/09/06 01:27:13;;;;;;;2.77;2.07;;;17.00;97.10;;;;;;4824618;29;20482;-86
2021/09/06 01:29:39;;;;;;;3.10;2.10;;;17.00;97.20;;;;;;4823335;29;20477;-86
2021/09/06 01:32:05;;;;;;;1.93;1.73;;;16.90;97.10;;;;;;4824598;29;20442;-86
2021/09/06 01:34:31;;;;;;;1.60;1.50;;;16.90;97.20;;;;;;4824544;29;20497;-86
2021/09/06 01:36:57;;;;;;;2.30;1.77;;;16.90;97.30;;;;;;4839951;29;20441;-86
2021/09/06 01:39:23;;;;;;;2.47;1.60;;;16.80;97.30;;;;;;4842547;29;20241;-86
2021/09/06 01:41:48;;;;;;;2.80;1.93;;;16.80;97.30;;;;;;4827789;29;20450;-86
2021/09/06 01:44:14;;;;;;;1.90;1.70;;;16.80;97.30;;;;;;4826654;29;20302;-87
2021/09/06 01:46:40;;;;;;;2.43;1.40;;;16.70;97.30;;;;;;4826743;29;20597;-87
2021/09/06 01:49:06;;;;;;;4.00;2.00;;;16.70;97.40;;;;;;4826499;29;20217;-86
2021/09/06 01:51:31;;;;;;;1.73;1.60;;;16.70;97.50;;;;;;4826607;29;20214;-86
2021/09/06 01:53:57;;;;;;;4.37;1.90;;;16.70;97.50;;;;;;4828120;29;21002;-87
2021/09/06 01:56:23;;;;;;;3.40;2.10;;;16.70;97.50;;;;;;4828425;29;20182;-87
2021/09/06 01:58:49;;;;;;;1.67;1.57;;;16.60;97.60;;;;;;4830098;29;20214;-87
2021/09/06 02:01:15;;;;;;;2.23;1.87;;;16.60;97.70;;;;;;4826371;29;20826;-87
2021/09/06 02:03:41;;;;;;;4.03;2.07;;;16.50;97.80;;;;;;4826304;29;20979;-87
2021/09/06 02:06:07;;;;;;;2.53;2.00;;;16.50;97.80;;;;;;4827445;29;20470;-86
2021/09/06 02:08:32;;;;;;;3.07;2.07;;;16.40;97.90;;;;;;4826081;29;20294;-86
2021/09/06 02:10:58;;;;;;;1.57;1.47;;;16.40;97.90;;;;;;4826448;29;20206;-87
2021/09/06 02:13:23;;;;;;;1.80;1.60;;;16.40;98.10;;;;;;4831556;29;20304;-86
2021/09/06 02:15:51;;;;;;;2.00;1.60;;;16.40;98.00;;;;;;4829224;29;20223;-87
2021/09/06 02:18:16;;;;;;;1.70;1.60;;;16.30;97.90;;;;;;4827307;29;20209;-87
2021/09/06 02:20:42;;;;;;;2.00;1.47;;;16.30;97.80;;;;;;4826226;29;20502;-86
2021/09/06 02:23:08;;;;;;;1.40;1.30;;;16.30;97.70;;;;;;4825957;29;20190;-86
2021/09/06 02:25:33;;;;;;;2.57;1.50;;;16.30;97.70;;;;;;4827669;29;20422;-86
2021/09/06 02:27:59;;;;;;;1.73;1.37;;;16.30;97.80;;;;;;4831767;29;20186;-87
2021/09/06 02:30:25;;;;;;;2.50;2.00;;;16.20;98.00;;;;;;4826270;29;20186;-88
2021/09/06 02:32:50;;;;;;;2.27;1.63;;;16.30;98.10;;;;;;4825875;29;20185;-86
2021/09/06 02:35:16;;;;;;;1.63;1.43;;;16.20;98.00;;;;;;4827365;29;20692;-87
2021/09/06 02:37:42;;;;;;;2.47;1.33;;;16.20;98.00;;;;;;4825846;29;20268;-87
2021/09/06 02:40:10;;;;;;;1.83;1.70;;;16.20;98.10;;;;;;4825852;29;20351;-87
2021/09/06 02:42:35;;;;;;;5.43;2.30;;;16.20;98.20;;;;;;4826892;29;20452;-86
2021/09/06 02:45:01;;;;;;;2.10;1.70;;;16.20;98.20;;;;;;4826985;29;20790;-87
2021/09/06 02:47:30;;;;;;;2.00;1.73;;;16.20;98.30;;;;;;4834162;29;20178;-86
2021/09/06 02:50:02;;;;;;;2.77;2.03;;;16.20;98.30;;;;;;4832093;29;20466;-87
2021/09/06 02:52:32;;;;;;;2.80;1.60;;;16.10;98.20;;;;;;4829972;29;20449;-86
2021/09/06 02:54:58;;;;;;;3.17;2.00;;;16.10;98.20;;;;;;4825499;29;20493;-86
2021/09/06 02:57:24;;;;;;;3.30;2.10;;;16.10;98.20;;;;;;4826758;29;20414;-87
2021/09/06 02:59:50;;;;;;;2.43;1.83;;;16.10;98.30;;;;;;4825447;29;20214;-87
2021/09/06 03:02:15;;;;;;;2.63;2.07;;;16.10;98.20;;;;;;4825700;29;20436;-86
2021/09/06 03:04:41;;;;;;;3.13;1.83;;;16.00;98.20;;;;;;4826775;29;20237;-86
2021/09/06 03:07:06;;;;;;;2.20;1.50;;;16.00;98.20;;;;;;4825298;29;20186;-86
2021/09/06 03:09:32;;;;;;;3.23;1.53;;;16.00;98.20;;;;;;4825112;29;20302;-86
2021/09/06 03:11:58;;;;;;;2.30;1.83;;;16.00;98.20;;;;;;4826572;29;20182;-87
2021/09/06 03:14:23;;;;;;;1.93;1.80;;;16.00;98.20;;;;;;4827469;29;20241;-87
2021/09/06 03:16:50;;;;;;;2.20;2.00;;;16.00;98.30;;;;;;4831275;29;20170;-86
2021/09/06 03:19:17;;;;;;;2.07;1.63;;;15.90;98.30;;;;;;4827684;29;20221;-86
2021/09/06 03:21:42;;;;;;;5.47;1.90;;;15.90;98.40;;;;;;4826397;29;20417;-86
2021/09/06 03:24:08;;;;;;;2.27;1.83;;;15.90;98.40;;;;;;4824911;29;20460;-87
2021/09/06 03:26:34;;;;;;;1.73;1.57;;;15.90;98.40;;;;;;4826318;29;20205;-86
2021/09/06 03:29:00;;;;;;;2.60;1.43;;;15.90;98.50;;;;;;4824908;29;20461;-86
2021/09/06 03:31:25;;;;;;;2.77;2.10;;;15.80;98.60;;;;;;4835636;29;20425;-86
2021/09/06 03:33:51;;;;;;;2.03;1.80;;;15.80;98.70;;;;;;4826095;29;20210;-86
2021/09/06 03:36:17;;;;;;;1.50;1.40;;;15.70;98.70;;;;;;4824892;29;20557;-86
2021/09/06 03:38:42;;;;;;;3.10;2.10;;;15.70;98.70;;;;;;4826017;29;20202;-87
2021/09/06 03:41:08;;;;;;;2.87;2.07;;;15.70;98.70;;;;;;4824813;29;20265;-87
2021/09/06 03:43:34;;;;;;;2.10;1.90;;;15.60;98.80;;;;;;4824716;29;20209;-87
2021/09/06 03:45:59;;;;;;;2.40;1.87;;;15.60;99.00;;;;;;4826493;29;20186;-86
2021/09/06 03:48:25;;;;;;;2.40;1.90;;;15.60;99.20;;;;;;4824699;29;20210;-86
2021/09/06 03:50:50;;;;;;;2.47;1.93;;;15.60;99.60;;;;;;4826417;29;20186;-87
2021/09/06 03:53:16;;;;;;;1.93;1.73;;;15.60;99.90;;;;;;4824702;29;20205;-87
2021/09/06 03:55:42;;;;;;;2.43;1.90;;;15.60;99.90;;;;;;4833341;29;20182;-87
2021/09/06 03:58:07;;;;;;;3.20;1.90;;;15.60;99.90;;;;;;4826460;29;20194;-86
2021/09/06 04:00:33;;;;;;;2.43;1.80;;;15.60;99.90;;;;;;4827222;29;20223;-86
2021/09/06 04:02:59;;;;;;;1.97;1.87;;;15.60;99.90;;;;;;4823543;29;20182;-85
2021/09/06 04:05:24;;;;;;;2.40;2.17;;;15.60;99.90;;;;;;4824368;29;20289;-87
2021/09/06 04:07:50;;;;;;;2.43;1.83;;;15.60;99.90;;;;;;4824816;29;20182;-86
2021/09/06 04:10:16;;;;;;;2.90;2.20;;;15.60;99.90;;;;;;4826963;29;20241;-86
2021/09/06 04:12:41;;;;;;;2.17;1.90;;;15.60;99.50;;;;;;4824761;29;20182;-86
2021/09/06 04:15:10;;;;;;;4.30;1.90;;;15.60;99.30;;;;;;4827840;29;20234;-86
2021/09/06 04:17:36;;;;;;;2.17;1.97;;;15.50;99.70;;;;;;4833531;29;20166;-86
2021/09/06 04:20:03;;;;;;;4.27;2.00;;;15.50;99.40;;;;;;4835754;29;20463;-87
2021/09/06 04:22:29;;;;;;;2.60;1.87;;;15.50;99.40;;;;;;4824179;29;20451;-88
2021/09/06 04:24:54;;;;;;;1.97;1.70;;;15.40;99.30;;;;;;4824288;29;20477;-87
2021/09/06 04:27:20;;;;;;;2.13;1.83;;;15.40;99.50;;;;;;4823853;29;20558;-87
2021/09/06 04:29:45;;;;;;;1.97;1.77;;;15.40;99.50;;;;;;4824162;29;20269;-87
2021/09/06 04:32:11;;;;;;;1.87;1.70;;;15.30;99.30;;;;;;4824069;29;20186;-86
2021/09/06 04:34:37;;;;;;;2.57;2.30;;;15.30;99.50;;;;;;4823837;29;20264;-87
2021/09/06 04:37:04;;;;;;;4.83;2.40;;;15.30;99.90;;;;;;4824243;29;20194;-87
2021/09/06 04:39:30;;;;;;;2.87;2.30;;;15.20;99.90;;;;;;4823020;29;20197;-85
2021/09/06 04:41:56;;;;;;;2.70;2.40;;;15.20;99.90;;;;;;4821380;29;20512;-86
2021/09/06 04:44:21;;;;;;;6.50;2.70;;;15.20;99.90;;;;;;4821639;29;20296;-86
2021/09/06 04:46:47;;;;;;;2.33;2.10;;;15.20;99.90;;;;;;4826410;29;20241;-87
2021/09/06 04:49:12;;;;;;;3.57;2.20;;;15.20;99.90;;;;;;4830800;29;20250;-87
2021/09/06 04:51:38;;;;;;;4.83;2.33;;;15.20;99.90;;;;;;4823062;29;20222;-87
2021/09/06 04:54:04;;;;;;;4.40;2.10;;;15.20;99.90;;;;;;4824355;29;20246;-88
2021/09/06 04:56:29;;;;;;;2.27;2.07;;;15.20;99.90;;;;;;4823987;29;20189;-87
2021/09/06 04:58:55;;;;;;;4.33;2.37;;;15.30;99.90;;;;;;4822809;29;20228;-87
2021/09/06 05:01:21;;;;;;;5.60;2.40;;;15.30;99.90;;;;;;4821580;29;20705;-87
2021/09/06 05:03:46;;;;;;;2.77;2.07;;;15.30;99.90;;;;;;4824091;29;20254;-88
2021/09/06 05:06:12;;;;;;;3.10;2.00;;;15.30;99.90;;;;;;4823324;29;20264;-87
2021/09/06 05:08:38;;;;;;;2.20;2.00;;;15.30;99.90;;;;;;4822734;29;20205;-88
2021/09/06 05:11:03;;;;;;;3.00;2.13;;;15.30;99.90;;;;;;4822682;29;20261;-87
2021/09/06 05:13:30;;;;;;;6.20;2.40;;;15.30;99.90;;;;;;4824244;29;20225;-87
2021/09/06 05:15:56;;;;;;;3.57;2.10;;;15.40;99.90;;;;;;4821248;29;20235;-87
2021/09/06 05:18:22;;;;;;;3.10;1.80;;;15.40;99.90;;;;;;4813727;29;20971;-86
2021/09/06 05:20:48;;;;;;;2.50;1.67;;;15.40;99.90;;;;;;4809940;29;20977;-86
2021/09/06 05:23:13;;;;;;;2.97;1.83;;;15.40;99.90;;;;;;4819051;29;20525;-87
2021/09/06 05:25:39;;;;;;;2.40;2.00;;;15.40;99.90;;;;;;4838005;29;20182;-87
2021/09/06 05:28:05;;;;;;;2.50;2.20;;;15.50;99.90;;;;;;4831626;29;20201;-87
2021/09/06 05:30:31;;;;;;;5.90;2.77;;;15.50;99.90;;;;;;4821539;29;20214;-87
2021/09/06 05:32:57;;;;;;;7.13;3.00;;;15.50;99.90;;;;;;4824423;29;20531;-87
2021/09/06 05:35:22;;;;;;;4.50;2.83;;;15.50;99.90;;;;;;4830930;29;20228;-86
2021/09/06 05:37:48;;;;;;;3.43;2.60;;;15.50;99.90;;;;;;4822695;29;20528;-87
2021/09/06 05:40:14;;;;;;;5.10;2.93;;;15.60;99.90;;;;;;4820716;29;20210;-87
2021/09/06 05:42:39;;;;;;;3.57;2.47;;;15.60;99.90;;;;;;4821323;29;21415;-86
2021/09/06 05:45:07;;;;;;;6.30;2.70;;;15.70;99.90;;;;;;4821470;29;20567;-87
2021/09/06 05:47:32;;;;;;;5.00;1.90;;;15.70;99.90;;;;;;4824211;29;20238;-88
2021/09/06 05:49:58;;;;;;;2.97;2.60;;;15.80;99.90;;;;;;4822363;29;20473;-88
2021/09/06 05:52:24;;;;;;;3.10;2.33;;;15.90;99.90;;;;;;4821483;29;20652;-87
2021/09/06 05:54:49;;;;;;;3.00;2.43;;;15.90;99.90;;;;;;4822095;29;20233;-86
2021/09/06 05:57:15;;;;;;;3.17;2.30;;;16.00;99.90;;;;;;4821243;29;20217;-88
2021/09/06 05:59:41;;;;;;;2.63;2.43;;;16.10;99.90;;;;;;4820556;29;20729;-86
2021/09/06 06:02:07;;;;;;;3.13;2.60;;;16.20;99.90;;;;;;4820860;29;20434;-88
2021/09/06 06:04:33;;;;;;;3.37;2.20;;;16.20;99.90;;;;;;4821497;29;20217;-88
2021/09/06 06:06:59;;;;;;;2.77;2.43;;;16.30;99.90;;;;;;4821001;29;20434;-87
2021/09/06 06:09:25;;;;;;;3.57;2.37;;;16.40;99.90;;;;;;4818083;29;20489;-88
2021/09/06 06:11:50;;;;;;;5.10;2.67;;;16.50;99.90;;;;;;4821562;29;20436;-86
2021/09/06 06:14:16;;;;;;;4.77;2.30;;;16.60;99.90;;;;;;4815233;29;20237;-86
2021/09/06 06:16:41;;;;;;;3.60;2.13;;;16.60;99.90;;;;;;4819168;29;20568;-87
2021/09/06 06:19:07;;;;;;;3.10;2.40;;;16.60;99.90;;;;;;4821378;29;20226;-86
2021/09/06 06:21:33;;;;;;;3.67;2.57;;;16.70;99.90;;;;;;4822888;29;20625;-87
2021/09/06 06:23:59;;;;;;;2.30;1.83;;;16.80;99.90;;;;;;4822051;29;20239;-88
2021/09/06 06:26:25;;;;;;;2.43;2.23;;;16.90;99.90;;;;;;4825960;29;20465;-86
2021/09/06 06:28:50;;;;;;;1.83;1.73;;;17.00;99.90;;;;;;4825238;29;20518;-87
2021/09/06 06:31:16;;;;;;;2.40;1.83;;;17.10;99.90;;;;;;4824273;29;20208;-87
2021/09/06 06:33:42;;;;;;;2.73;2.17;;;17.10;99.90;;;;;;4825791;29;20237;-87
2021/09/06 06:36:08;;;;;;;2.50;1.90;;;17.20;99.90;;;;;;4821045;29;20186;-87
2021/09/06 06:38:35;;;;;;;2.13;1.77;;;17.20;99.90;;;;;;4818689;29;20472;-85
2021/09/06 06:41:02;;;;;;;5.07;3.00;;;17.30;99.80;;;;;;4818790;29;20517;-87
2021/09/06 06:43:28;;;;;;;3.70;3.40;;;17.30;99.90;;;;;;4829065;29;20603;-88
2021/09/06 06:45:55;;;;;;;4.00;2.37;;;17.40;99.90;;;;;;4824072;29;20464;-87
2021/09/06 06:48:21;;;;;;;2.73;2.40;;;17.50;99.60;;;;;;4822579;29;20449;-86
2021/09/06 06:50:46;;;;;;;3.80;3.03;;;17.50;99.40;;;;;;4824515;29;20441;-86
2021/09/06 06:53:12;;;;;;;4.30;2.90;;;17.60;99.50;;;;;;4822435;29;20278;-86
2021/09/06 06:55:38;;;;;;;2.80;2.23;;;17.70;99.30;;;;;;4821734;29;20221;-86
2021/09/06 06:58:04;;;;;;;3.90;2.37;;;17.70;99.30;;;;;;4821570;29;20465;-86
2021/09/06 07:00:30;;;;;;;2.57;2.37;;;17.80;99.30;;;;;;4820241;29;20242;-86
2021/09/06 07:02:56;;;;;;;3.30;2.67;;;17.90;99.50;;;;;;4824899;29;20760;-87
2021/09/06 07:05:21;;;;;;;2.70;2.50;;;18.00;99.20;;;;;;4825317;29;20202;-88
2021/09/06 07:07:47;;;;;;;3.37;2.53;;;18.00;99.10;;;;;;4821080;29;20449;-86
2021/09/06 07:10:13;;;;;;;3.30;2.30;;;18.10;99.40;;;;;;4818312;29;20246;-87
2021/09/06 07:12:39;;;;;;;3.70;2.50;;;18.20;99.20;;;;;;4818933;29;20182;-88
2021/09/06 07:15:07;;;;;;;3.10;2.73;;;18.30;98.90;;;;;;4835301;29;20249;-86
2021/09/06 07:17:33;;;;;;;2.67;2.47;;;18.40;99.00;;;;;;4820295;29;20842;-86
2021/09/06 07:20:06;;;;;;;3.60;2.77;;;18.50;99.20;;;;;;4956284;24;21083;-63
2021/09/06 07:22:32;;;;;;;3.00;2.30;;;18.60;99.10;;;;;;4823221;29;20906;-63
2021/09/06 07:24:59;;;;;;;5.20;2.87;;;18.70;98.70;;;;;;4817990;29;20469;-63
2021/09/06 07:27:24;;;;;;;2.60;2.40;;;18.80;98.60;;;;;;4817689;29;20194;-63
2021/09/06 07:29:50;;;;;;;3.60;2.73;;;18.90;98.80;;;;;;4815849;29;20492;-63
2021/09/06 07:34:59;;;;;;;3.73;2.80;;;19.10;98.40;;;;;;4963220;24;20250;-63
2021/09/06 07:37:24;;;;;;;3.93;2.70;;;19.20;98.50;;;;;;4823253;29;20977;-63
2021/09/06 07:39:50;;;;;;;3.93;2.20;;;19.30;98.30;;;;;;4821760;29;20222;-63
2021/09/06 07:42:16;;;;;;;3.50;2.67;;;19.40;98.10;;;;;;4818991;29;20181;-63
2021/09/06 07:44:41;;;;;;;3.90;2.50;;;19.50;98.00;;;;;;4822346;29;20209;-64
2021/09/06 07:47:07;;;;;;;2.93;2.57;;;19.60;98.20;;;;;;4824517;29;20197;-63
2021/09/06 07:49:33;;;;;;;5.00;2.53;;;19.70;98.00;;;;;;4824140;29;20208;-63
2021/09/06 07:51:58;;;;;;;2.80;2.47;;;19.80;97.70;;;;;;4823671;29;20197;-64
2021/09/06 07:54:25;;;;;;;3.40;2.40;;;19.90;97.90;;;;;;4819780;29;20713;-63
2021/09/06 07:56:53;;;;;;;2.80;2.33;;;20.10;97.60;;;;;;4823203;29;20183;-63
2021/09/06 07:59:20;;;;;;;4.33;3.13;;;20.20;97.80;;;;;;4822366;29;20562;-63
2021/09/06 08:01:46;;;;;;;2.97;2.67;;;20.30;97.50;;;;;;4814822;29;20829;-64
2021/09/06 08:04:12;;;;;;;2.70;2.50;;;20.40;98.10;;;;;;4821554;29;21157;-63
2021/09/06 08:06:38;;;;;;;3.90;2.60;;;20.50;97.80;;;;;;4821882;29;20523;-63
2021/09/06 08:09:04;;;;;;;2.73;2.50;;;20.60;97.60;;;;;;4819563;29;20877;-63
2021/09/06 08:11:30;;;;;;;3.63;2.83;;;20.70;97.70;;;;;;4815882;29;20479;-63
2021/09/06 08:13:56;;;;;;;3.63;2.57;;;20.90;97.20;;;;;;4823216;29;20500;-65
2021/09/06 08:16:22;;;;;;;3.63;2.80;;;21.00;97.00;;;;;;4823200;29;20432;-65
2021/09/06 08:18:48;;;;;;;3.53;2.97;;;21.10;97.10;;;;;;4822824;29;20951;-63
2021/09/06 08:21:13;;;;;;;3.23;2.43;;;21.20;97.10;;;;;;4818681;29;20206;-63
2021/09/06 08:23:40;;;;;;;4.00;2.87;;;21.40;97.20;;;;;;4814274;29;20664;-63
2021/09/06 08:26:05;;;;;;;6.13;3.20;;;21.50;96.20;;;;;;4820456;29;20587;-65
2021/09/06 08:28:31;;;;;;;8.83;3.30;;;21.60;96.60;;;;;;4822142;29;20469;-65
2021/09/06 08:30:57;;;;;;;5.50;2.90;;;21.70;96.70;;;;;;4819858;29;20617;-64
2021/09/06 08:33:22;;;;;;;7.07;3.50;;;21.90;95.80;;;;;;4818411;29;20212;-63
2021/09/06 08:35:48;;;;;;;5.70;4.07;;;22.10;95.90;;;;;;4819084;29;20230;-63
2021/09/06 08:38:15;;;;;;;6.83;2.83;;;22.40;96.10;;;;;;4814769;29;20720;-63
2021/09/06 08:40:41;;;;;;;4.60;2.93;;;23.10;95.60;;;;;;4819685;29;20255;-64
2021/09/06 08:43:08;;;;;;;3.70;3.20;;;23.90;94.60;;;;;;4819220;29;20445;-63
2021/09/06 08:45:36;;;;;;;7.87;3.80;;;24.50;93.00;;;;;;4819633;29;20433;-64
2021/09/06 08:48:03;;;;;;;4.47;3.03;;;24.90;93.20;;;;;;4818790;29;20450;-63
2021/09/06 08:50:28;;;;;;;4.57;2.87;;;24.90;94.40;;;;;;4817941;29;20429;-64
2021/09/06 08:52:54;;;;;;;3.20;2.60;;;24.80;95.00;;;;;;4819411;29;20490;-63
2021/09/06 08:55:20;;;;;;;22.87;4.97;;;24.60;93.70;;;;;;4815140;29;20304;-64
2021/09/06 08:57:46;;;;;;;4.73;2.90;;;24.40;95.20;;;;;;4806986;29;21103;-64
2021/09/06 09:00:13;;;;;;;3.90;2.50;;;24.30;93.40;;;;;;4799062;29;20640;-64
2021/09/06 09:02:41;;;;;;;4.90;3.07;;;24.20;95.10;;;;;;4777331;29;20845;-64
2021/09/06 09:05:10;;;;;;;2.30;2.10;;;24.10;93.70;;;;;;4779644;29;20454;-63
2021/09/06 09:07:39;;;;;;;3.30;2.20;;;24.10;92.60;;;;;;4805639;29;20474;-65
2021/09/06 09:10:10;;;;;;;4.47;2.87;;;24.00;93.00;;;;;;4819658;29;20552;-63
2021/09/06 09:12:38;;;;;;;3.23;2.40;;;24.00;94.60;;;;;;4813194;29;20468;-65
2021/09/06 09:15:05;;;;;;;4.50;2.80;;;24.00;92.60;;;;;;4798252;29;21189;-63
2021/09/06 09:17:30;;;;;;;2.97;2.77;;;23.90;94.60;;;;;;4814839;29;20464;-63
2021/09/06 09:20:05;;;;;;;3.90;3.20;;;23.90;92.50;;;;;;4821002;29;20498;-63
2021/09/06 09:22:34;;;;;;;2.67;2.43;;;23.90;92.70;;;;;;4814455;29;20393;-63
2021/09/06 09:25:03;;;;;;;3.30;2.50;;;23.90;92.90;;;;;;4818261;29;20736;-63
2021/09/06 09:27:35;;;;;;;2.53;2.33;;;24.00;92.20;;;;;;4818552;29;20896;-64
2021/09/06 09:30:03;;;;;;;4.07;2.77;;;24.00;92.60;;;;;;4808522;29;20978;-63
2021/09/06 09:32:32;;;;;;;3.37;2.70;;;24.00;91.70;;;;;;4832072;29;20512;-65
2021/09/06 09:34:58;;;;;;;5.10;3.50;;;24.00;93.00;;;;;;4821547;29;20563;-65
2021/09/06 09:37:26;;;;;;;3.30;3.00;;;24.10;92.50;;;;;;4818188;29;20430;-64
2021/09/06 09:39:57;;;;;;;2.63;2.40;;;24.10;91.20;;;;;;4822003;29;20216;-63
2021/09/06 09:42:24;;;;;;;2.97;2.57;;;24.10;90.70;;;;;;4818423;29;20482;-63
2021/09/06 09:44:53;;;;;;;3.00;2.50;;;24.10;90.10;;;;;;4820128;29;20465;-65
2021/09/06 09:47:20;;;;;;;4.27;3.00;;;24.10;90.70;;;;;;4818987;29;20441;-65
2021/09/06 09:49:48;;;;;;;3.43;2.47;;;24.10;90.40;;;;;;4816928;29;20470;-64
2021/09/06 09:52:14;;;;;;;2.80;2.40;;;24.10;92.10;;;;;;4818887;29;20776;-62
2021/09/06 09:54:40;;;;;;;3.27;2.80;;;24.10;91.60;;;;;;4817018;29;20497;-63
2021/09/06 09:57:06;;;;;;;3.13;2.63;;;24.10;91.90;;;;;;4817440;29;20461;-63
2021/09/06 09:59:32;;;;;;;2.93;2.63;;;24.10;90.10;;;;;;4814149;29;20659;-62
2021/09/06 10:02:06;;;;;;;3.30;2.30;;;24.20;90.10;;;;;;4821683;29;20221;-62
2021/09/06 10:04:35;;;;;;;3.90;2.80;;;24.20;89.20;;;;;;4819093;29;20497;-62
2021/09/06 10:07:03;;;;;;;3.70;3.03;;;24.20;90.10;;;;;;4820991;29;20840;-64
2021/09/06 10:09:43;;;;;;;4.90;2.80;;;24.20;90.60;;;;;;4820960;29;20995;-63
2021/09/06 10:12:09;;;;;;;3.57;2.20;;;24.20;92.10;;;;;;4822327;29;21023;-64
2021/09/06 10:14:35;;;;;;;4.13;2.40;;;24.20;92.20;;;;;;4822894;29;20904;-64
2021/09/06 10:17:06;;;;;;;3.73;2.77;;;24.20;93.10;;;;;;4823138;29;20430;-64
2021/09/06 10:19:40;;;;;;;2.87;2.60;;;24.20;93.10;;;;;;4819500;29;20206;-63
2021/09/06 10:22:06;;;;;;;3.77;2.33;;;24.30;91.30;;;;;;4823161;29;20431;-63
2021/09/06 10:24:31;;;;;;;3.07;2.60;;;24.30;92.40;;;;;;4819101;29;20531;-63
2021/09/06 10:27:05;;;;;;;3.33;2.10;;;24.30;92.90;;;;;;4815793;29;20194;-63
2021/09/06 10:29:31;;;;;;;3.30;3.00;;;24.30;90.60;;;;;;4813146;29;20657;-63
2021/09/06 10:31:59;;;;;;;2.90;2.60;;;24.30;88.90;;;;;;4821911;29;21048;-63
2021/09/06 10:34:28;;;;;;;3.07;2.70;;;24.40;86.40;;;;;;4818029;29;20505;-63
2021/09/06 10:37:03;;;;;;;5.27;2.60;;;24.40;90.50;;;;;;4819070;29;20446;-64
2021/09/06 10:39:29;;;;;;;2.80;2.17;;;24.40;89.20;;;;;;4819373;29;20465;-63
2021/09/06 10:42:06;;;;;;;4.70;2.50;;;24.50;88.40;;;;;;4820964;29;20925;-63
2021/09/06 10:44:39;;;;;;;6.40;2.83;;;24.50;88.20;;;;;;4815322;29;20469;-63
2021/09/06 10:47:08;;;;;;;5.20;2.90;;;24.50;89.60;;;;;;4825234;29;20445;-63
2021/09/06 10:49:37;;;;;;;4.33;2.47;;;24.50;84.40;;;;;;4822712;29;20562;-64
2021/09/06 10:52:03;;;;;;;4.30;2.60;;;24.50;85.60;;;;;;4824101;29;20474;-64
2021/09/06 10:54:29;;;;;;;2.97;2.30;;;24.50;89.10;;;;;;4820695;29;20517;-62
2021/09/06 10:56:54;;;;;;;5.60;2.80;;;24.50;91.50;;;;;;4818856;29;20530;-63
2021/09/06 10:59:25;;;;;;;4.33;2.83;;;24.50;86.20;;;;;;4816347;29;20236;-63
2021/09/06 11:01:52;;;;;;;3.90;2.80;;;24.50;88.20;;;;;;4818188;29;20645;-65
2021/09/06 11:04:23;;;;;;;5.70;2.90;;;24.50;86.80;;;;;;4819058;29;20500;-65
2021/09/06 11:06:57;;;;;;;2.47;2.27;;;24.50;86.40;;;;;;4812691;29;20534;-65
2021/09/06 11:09:27;;;;;;;3.07;2.30;;;24.50;91.50;;;;;;4818402;29;20468;-63
2021/09/06 11:12:00;;;;;;;3.60;3.30;;;24.50;90.70;;;;;;4815324;29;20837;-64
2021/09/06 11:14:44;;;;;;;2.90;2.50;;;24.60;90.80;;;;;;4813077;29;20914;-64
2021/09/06 11:17:25;;;;;;;5.40;3.80;;;24.60;92.00;;;;;;4810939;29;20563;-63
2021/09/06 11:19:55;;;;;;;17.67;4.40;;;24.60;89.90;;;;;;4814468;29;20477;-63
2021/09/06 11:22:22;;;;;;;5.37;4.00;;;24.60;87.50;;;;;;4817364;29;20435;-64
2021/09/06 11:24:49;;;;;;;5.30;4.27;;;24.70;86.60;;;;;;4815615;29;20462;-62
2021/09/06 11:27:28;;;;;;;7.43;4.37;;;24.70;88.00;;;;;;4814402;29;20472;-63
2021/09/06 11:29:54;;;;;;;11.53;4.17;;;24.80;89.60;;;;;;4816356;29;20471;-63
2021/09/06 11:32:20;;;;;;;8.77;4.60;;;24.80;90.20;;;;;;4815385;29;20451;-63
2021/09/06 11:34:48;;;;;;;3.77;3.43;;;24.80;90.00;;;;;;4816452;29;20244;-63
2021/09/06 11:37:14;;;;;;;5.40;3.90;;;24.90;88.50;;;;;;4815044;29;20605;-64
2021/09/06 11:39:43;;;;;;;5.80;3.87;;;24.90;86.70;;;;;;4816373;29;20479;-64
2021/09/06 11:42:09;;;;;;;4.63;3.93;;;24.90;89.00;;;;;;4814235;29;20224;-64
2021/09/06 11:44:36;;;;;;;5.20;4.10;;;24.90;89.60;;;;;;4814760;29;20476;-63
2021/09/06 11:47:02;;;;;;;7.27;4.37;;;24.90;90.60;;;;;;4816066;29;20483;-63
2021/09/06 11:49:27;;;;;;;5.80;4.10;;;25.00;91.10;;;;;;4818482;29;20468;-63
2021/09/06 11:51:53;;;;;;;12.07;9.93;;;25.00;89.30;;;;;;4819099;29;20904;-64
2021/09/06 11:54:21;;;;;;;6.63;4.57;;;25.00;87.70;;;;;;4816464;29;20256;-63
2021/09/06 11:56:58;;;;;;;7.80;4.17;;;25.00;87.70;;;;;;4819601;29;20182;-63
2021/09/06 11:59:29;;;;;;;6.90;4.10;;;25.10;86.50;;;;;;4817295;29;20470;-63
2021/09/06 12:01:55;;;;;;;5.00;4.00;;;25.20;87.00;;;;;;4817234;29;21025;-65
2021/09/06 12:04:20;;;;;;;4.87;4.10;;;25.10;88.50;;;;;;4821089;29;20559;-64
2021/09/06 12:06:46;;;;;;;5.60;4.27;;;25.20;86.80;;;;;;4818940;29;20249;-64
2021/09/06 12:09:12;;;;;;;4.33;3.90;;;25.20;88.80;;;;;;4823605;29;20213;-63
2021/09/06 12:11:42;;;;;;;4.43;3.93;;;25.20;90.10;;;;;;4822479;29;20180;-63
2021/09/06 12:14:09;;;;;;;5.40;4.90;;;25.20;89.30;;;;;;4819445;29;20487;-65
2021/09/06 12:16:36;;;;;;;5.67;3.80;;;25.20;90.40;;;;;;4817834;29;20444;-63
2021/09/06 12:19:15;;;;;;;5.40;4.50;;;25.20;90.70;;;;;;4816101;29;20582;-63
2021/09/06 12:21:43;;;;;;;7.60;4.60;;;25.30;86.40;;;;;;4815016;29;20831;-63
2021/09/06 12:24:09;;;;;;;3.80;3.50;;;25.30;90.00;;;;;;4819368;29;20500;-63
2021/09/06 12:26:42;;;;;;;4.23;3.30;;;25.30;89.30;;;;;;4823009;29;20417;-63
2021/09/06 12:29:08;;;;;;;5.67;3.70;;;25.30;89.90;;;;;;4819495;29;20974;-64
2021/09/06 12:31:45;;;;;;;4.97;4.00;;;25.20;90.90;;;;;;4817805;29;20435;-65
2021/09/06 12:34:12;;;;;;;4.63;3.80;;;25.20;91.10;;;;;;4820676;29;20504;-63
2021/09/06 12:36:38;;;;;;;7.17;4.90;;;25.20;90.50;;;;;;4817870;29;20461;-63
2021/09/06 12:39:04;;;;;;;7.00;4.50;;;25.20;86.40;;;;;;4822405;29;20750;-64
2021/09/06 12:41:30;;;;;;;5.20;3.90;;;25.20;86.30;;;;;;4822037;29;20840;-63
2021/09/06 12:43:56;;;;;;;6.03;4.33;;;25.30;87.00;;;;;;4819664;29;20719;-64
2021/09/06 12:46:22;;;;;;;4.57;3.83;;;25.30;88.10;;;;;;4816064;29;20709;-63